Cody, WY

11:04 PM MDT on May 06, 2015 (GMT -0600)
Cody WY, Cody DITWIT Weather @5230 ft | | Change Station
CLOSE
Current Station
Personal Weather Station
Location: Cody, WY
Elevation: 5135 ft
Nearby Weather Stations

Elev 5135 ft 44.49 °N, 108.99 °W | Updated 18 seconds ago

Overcast
Overcast
45.1 °F
Feels Like 41 °F
N
7.0
Wind Variable Wind from North
Gusts 10.0 mph

Today
High -- | Low -- °F
--% Chance of Precip.
Yesterday
High -- | Low -- °F
Precip. -- in
5:59 AM 8:26 PM
Waning Gibbous, 90% visible
Pressure 29.92 in
Visibility 10.0 miles
Clouds Few 4400 ft
Overcast 5000 ft
Windchill 41 °F
Dew Point 28 °F
Humidity 51%
Rainfall 0.04 in
Snow Depth Not available.
UV 0 out of 12
Pollen 7.00 out of 12
Air Quality Not available.
Flu Activity Sporadic
METAR KCOD 070455Z AUTO 34011G15KT 10SM FEW044 OVC050 07/M02 A2992 RMK AO1

More Conditions Fewer Conditions

Pressure 29.92 in
Visibility 10.0 miles
Clouds Few 4400 ft
Overcast 5000 ft
Windchill 41 °F
Dew Point 28 °F
Humidity 51%
Rainfall 0.04 in
Snow Depth Not available.
UV 0 out of 12
Pollen 7.00 out of 12
Air Quality Not available.
Flu Activity Sporadic
METAR KCOD 070455Z AUTO 34011G15KT 10SM FEW044 OVC050 07/M02 A2992 RMK AO1

More Conditions Fewer Conditions

10-Day Weather Forecast

Almanac

Astronomy

May. 06, 2015 Rise Set
Actual Time
Civil Twilight
Nautical Twilight
Astronomical Twilight
Moon
Length of Visible Light
Length of Day
Tomorrow will be .
, % of the Moon is Illuminated

Today's Extremes

State Highs State Lows

Community

WunderPhotos

Upload Photos

1,819,123 photos uploaded!

WunderBlogs® & News

Nearby

Air Quality

  Air Quality AQ Index Pollutant
Not available.

Snow Depth

Station Depth Elevation

Earthquake Activity

City Distance Mag. Time & Date
Minimum magnitude displayed is 2.5.

Coastal Water Temperatures

Place Temperature

Stations

Nearby Weather Stations

Station Location Temp. Windchill Dew Point Humidity Wind Precip. Elev Updated Type